AAL1958 SACO-SAEZ
Flight info
| Callsign | AAL1958 |
|---|---|
| Flight time | 1h 5m |
| Altitude | 35000 |
| Route | UTRAX1C MJZ SNT SNT7U |
| Aircraft | B738/M-VGDW/C |
Departure
| Time | 2026-04-28 22:51 |
|---|---|
| Airport | Ingeniero Aeronáutico Ambrosio L.V. Taravella International Airport (SACO) |
Arrival
| Time | 2026-04-28 23:56 |
|---|---|
| Airport | Ezeiza International Airport - Ministro Pistarini (SAEZ) |
| Time | Latitude | Longitude | Altitude | Speed | Heading |
|---|---|---|---|---|---|
| 2026-04-28 22:49 | -31.32389 | -64.21008 | 1537 ft | 0 kts | 166° |
| 2026-04-28 22:50 | -31.32440 | -64.20946 | 1535 ft | 25 kts | 96° |
| 2026-04-28 22:50 | -31.32307 | -64.20818 | 1536 ft | 22 kts | 359° |
| 2026-04-28 22:50 | -31.32033 | -64.20817 | 1544 ft | 79 kts | 357° |
| 2026-04-28 22:50 | -31.31182 | -64.20843 | 1607 ft | 158 kts | 358° |
| 2026-04-28 22:51 | -31.30152 | -64.21031 | 2726 ft | 152 kts | 347° |
| 2026-04-28 22:51 | -31.29073 | -64.21054 | 3651 ft | 164 kts | 11° |
| 2026-04-28 22:51 | -31.27997 | -64.20686 | 4785 ft | 166 kts | 21° |
| 2026-04-28 22:51 | -31.26997 | -64.20094 | 5826 ft | 174 kts | 28° |
| 2026-04-28 22:52 | -31.25946 | -64.19198 | 6471 ft | 208 kts | 37° |
| 2026-04-28 22:52 | -31.24891 | -64.17870 | 7215 ft | 240 kts | 49° |
| 2026-04-28 22:52 | -31.24067 | -64.16291 | 8888 ft | 227 kts | 64° |
| 2026-04-28 22:52 | -31.23655 | -64.14651 | 10261 ft | 221 kts | 75° |
| 2026-04-28 22:53 | -31.23504 | -64.12762 | 10941 ft | 248 kts | 84° |
| 2026-04-28 22:53 | -31.23806 | -64.10788 | 11846 ft | 257 kts | 115° |
| 2026-04-28 22:53 | -31.24870 | -64.09061 | 12605 ft | 272 kts | 130° |
| 2026-04-28 22:53 | -31.26080 | -64.07305 | 13251 ft | 287 kts | 124° |
| 2026-04-28 22:54 | -31.27169 | -64.05347 | 14145 ft | 293 kts | 121° |
| 2026-04-28 22:54 | -31.28424 | -64.03442 | 14908 ft | 303 kts | 134° |
| 2026-04-28 22:54 | -31.30009 | -64.01698 | 15276 ft | 328 kts | 138° |
| 2026-04-28 22:54 | -31.31754 | -63.99822 | 15717 ft | 349 kts | 137° |
| 2026-04-28 22:55 | -31.33574 | -63.97803 | 15993 ft | 374 kts | 137° |
| 2026-04-28 22:55 | -31.35495 | -63.95660 | 16459 ft | 392 kts | 137° |
| 2026-04-28 22:55 | -31.37474 | -63.93446 | 17115 ft | 402 kts | 137° |
| 2026-04-28 22:55 | -31.39487 | -63.91192 | 17862 ft | 408 kts | 137° |
| 2026-04-28 22:56 | -31.41567 | -63.88861 | 18599 ft | 414 kts | 137° |
| 2026-04-28 22:56 | -31.43642 | -63.86533 | 19334 ft | 419 kts | 137° |
| 2026-04-28 22:56 | -31.45741 | -63.84176 | 20041 ft | 425 kts | 137° |
| 2026-04-28 22:56 | -31.47876 | -63.81778 | 20733 ft | 430 kts | 137° |
| 2026-04-28 22:57 | -31.50058 | -63.79336 | 21406 ft | 435 kts | 137° |
| 2026-04-28 22:57 | -31.52245 | -63.76891 | 22057 ft | 439 kts | 138° |
| 2026-04-28 22:57 | -31.54455 | -63.74418 | 22681 ft | 444 kts | 138° |
| 2026-04-28 22:57 | -31.56688 | -63.71919 | 23316 ft | 448 kts | 138° |
| 2026-04-28 22:58 | -31.58946 | -63.69389 | 23918 ft | 453 kts | 138° |
| 2026-04-28 22:58 | -31.61221 | -63.66839 | 24505 ft | 457 kts | 138° |
| 2026-04-28 22:58 | -31.63536 | -63.64246 | 25071 ft | 462 kts | 139° |
| 2026-04-28 22:58 | -31.65868 | -63.61660 | 25621 ft | 466 kts | 139° |
| 2026-04-28 22:59 | -31.68228 | -63.59058 | 26149 ft | 470 kts | 139° |
| 2026-04-28 22:59 | -31.70610 | -63.56428 | 26661 ft | 474 kts | 139° |
| 2026-04-28 22:59 | -31.72992 | -63.53794 | 27156 ft | 477 kts | 139° |
| 2026-04-28 22:59 | -31.75403 | -63.51125 | 27634 ft | 481 kts | 139° |
| 2026-04-28 23:00 | -31.77855 | -63.48408 | 28058 ft | 476 kts | 139° |
| 2026-04-28 23:00 | -31.80260 | -63.45739 | 28232 ft | 484 kts | 140° |
| 2026-04-28 23:00 | -31.82700 | -63.43033 | 28741 ft | 486 kts | 140° |
| 2026-04-28 23:00 | -31.85162 | -63.40299 | 29046 ft | 492 kts | 140° |
| 2026-04-28 23:01 | -31.87617 | -63.37511 | 29505 ft | 495 kts | 137° |
| 2026-04-28 23:01 | -31.89947 | -63.34452 | 29890 ft | 501 kts | 131° |
| 2026-04-28 23:01 | -31.92121 | -63.31247 | 30272 ft | 505 kts | 130° |
| 2026-04-28 23:01 | -31.94301 | -63.27994 | 30653 ft | 508 kts | 130° |
| 2026-04-28 23:02 | -31.96488 | -63.24754 | 31057 ft | 509 kts | 130° |
| 2026-04-28 23:02 | -31.98688 | -63.21495 | 31476 ft | 510 kts | 130° |
| 2026-04-28 23:02 | -32.00866 | -63.18265 | 31904 ft | 511 kts | 131° |
| 2026-04-28 23:02 | -32.03065 | -63.14998 | 32339 ft | 511 kts | 131° |
| 2026-04-28 23:03 | -32.05269 | -63.11720 | 32779 ft | 511 kts | 131° |
| 2026-04-28 23:03 | -32.07465 | -63.08452 | 33141 ft | 513 kts | 131° |
| 2026-04-28 23:03 | -32.09681 | -63.05152 | 33493 ft | 515 kts | 131° |
| 2026-04-28 23:03 | -32.11897 | -63.01853 | 33828 ft | 517 kts | 131° |
| 2026-04-28 23:04 | -32.14126 | -62.98531 | 34160 ft | 518 kts | 131° |
| 2026-04-28 23:04 | -32.18611 | -62.91840 | 34818 ft | 522 kts | 131° |
| 2026-04-28 23:04 | -32.20852 | -62.88489 | 34968 ft | 522 kts | 131° |
| 2026-04-28 23:05 | -32.25331 | -62.81779 | 34966 ft | 519 kts | 131° |
| 2026-04-28 23:05 | -32.29772 | -62.75110 | 34967 ft | 517 kts | 131° |
| 2026-04-28 23:06 | -32.34202 | -62.68444 | 34966 ft | 518 kts | 131° |
| 2026-04-28 23:06 | -32.38611 | -62.61792 | 34966 ft | 518 kts | 131° |
| 2026-04-28 23:07 | -32.43045 | -62.55088 | 34967 ft | 518 kts | 131° |
| 2026-04-28 23:07 | -32.47458 | -62.48404 | 34966 ft | 518 kts | 131° |
| 2026-04-28 23:08 | -32.51899 | -62.41665 | 34966 ft | 518 kts | 131° |
| 2026-04-28 23:08 | -32.56301 | -62.34973 | 34966 ft | 518 kts | 130° |
| 2026-04-28 23:09 | -32.60723 | -62.28245 | 34969 ft | 522 kts | 130° |
| 2026-04-28 23:09 | -32.65213 | -62.21408 | 34968 ft | 531 kts | 130° |
| 2026-04-28 23:10 | -32.69712 | -62.14489 | 34966 ft | 539 kts | 129° |
| 2026-04-28 23:10 | -32.73997 | -62.07137 | 34949 ft | 532 kts | 126° |
| 2026-04-28 23:11 | -32.76032 | -62.03576 | 34959 ft | 518 kts | 127° |
| 2026-04-28 23:11 | -32.78080 | -62.00034 | 34970 ft | 521 kts | 127° |
| 2026-04-28 23:11 | -32.82207 | -61.92933 | 34969 ft | 528 kts | 127° |
| 2026-04-28 23:12 | -32.86389 | -61.85726 | 34967 ft | 532 kts | 127° |
| 2026-04-28 23:12 | -32.90586 | -61.78483 | 34965 ft | 531 kts | 127° |
| 2026-04-28 23:13 | -32.94757 | -61.71277 | 34965 ft | 531 kts | 127° |
| 2026-04-28 23:13 | -32.98917 | -61.64077 | 34966 ft | 528 kts | 127° |
| 2026-04-28 23:14 | -33.03025 | -61.56939 | 34964 ft | 518 kts | 127° |
| 2026-04-28 23:14 | -33.07035 | -61.49955 | 34965 ft | 510 kts | 126° |
| 2026-04-28 23:15 | -33.11002 | -61.43033 | 34966 ft | 503 kts | 126° |
| 2026-04-28 23:15 | -33.14926 | -61.36172 | 34966 ft | 500 kts | 126° |
| 2026-04-28 23:16 | -33.18831 | -61.29345 | 34967 ft | 502 kts | 126° |
| 2026-04-28 23:16 | -33.22768 | -61.22461 | 34966 ft | 502 kts | 125° |
| 2026-04-28 23:17 | -33.26698 | -61.15564 | 34965 ft | 504 kts | 126° |
| 2026-04-28 23:17 | -33.30643 | -61.08647 | 34966 ft | 510 kts | 126° |
| 2026-04-28 23:18 | -33.34665 | -61.01585 | 34966 ft | 516 kts | 126° |
| 2026-04-28 23:18 | -33.38702 | -60.94483 | 34966 ft | 521 kts | 126° |
| 2026-04-28 23:19 | -33.42749 | -60.87351 | 34965 ft | 520 kts | 126° |
| 2026-04-28 23:19 | -33.46800 | -60.80189 | 34965 ft | 519 kts | 126° |
| 2026-04-28 23:20 | -33.50835 | -60.73040 | 34966 ft | 519 kts | 126° |
| 2026-04-28 23:20 | -33.54846 | -60.65916 | 34966 ft | 520 kts | 126° |
| 2026-04-28 23:21 | -33.58878 | -60.58740 | 34966 ft | 520 kts | 126° |
| 2026-04-28 23:21 | -33.62886 | -60.51593 | 34966 ft | 520 kts | 126° |
| 2026-04-28 23:22 | -33.66245 | -60.45593 | 34966 ft | 519 kts | 126° |
| 2026-04-28 23:22 | -33.71373 | -60.37670 | 34959 ft | 510 kts | 135° |
| 2026-04-28 23:23 | -33.76082 | -60.31443 | 34328 ft | 509 kts | 134° |
| 2026-04-28 23:23 | -33.78428 | -60.28283 | 33704 ft | 508 kts | 134° |
| 2026-04-28 23:23 | -33.80743 | -60.25137 | 33082 ft | 505 kts | 134° |
| 2026-04-28 23:24 | -33.83048 | -60.21982 | 32457 ft | 502 kts | 133° |
| 2026-04-28 23:24 | -33.85356 | -60.18808 | 31830 ft | 502 kts | 133° |
| 2026-04-28 23:24 | -33.87630 | -60.15667 | 31211 ft | 502 kts | 133° |
| 2026-04-28 23:24 | -33.89901 | -60.12519 | 30590 ft | 502 kts | 132° |
| 2026-04-28 23:25 | -33.92201 | -60.09323 | 29961 ft | 503 kts | 132° |
| 2026-04-28 23:25 | -33.94462 | -60.06175 | 29340 ft | 503 kts | 131° |
| 2026-04-28 23:25 | -33.96732 | -60.03008 | 28717 ft | 503 kts | 131° |
| 2026-04-28 23:25 | -33.99021 | -59.99812 | 28088 ft | 503 kts | 131° |
| 2026-04-28 23:26 | -34.01275 | -59.96662 | 27470 ft | 503 kts | 131° |
| 2026-04-28 23:26 | -34.03574 | -59.93446 | 26837 ft | 503 kts | 131° |
| 2026-04-28 23:26 | -34.05839 | -59.90276 | 26215 ft | 503 kts | 131° |
| 2026-04-28 23:26 | -34.08101 | -59.87107 | 25543 ft | 504 kts | 130° |
| 2026-04-28 23:27 | -34.10374 | -59.83923 | 24790 ft | 500 kts | 130° |
| 2026-04-28 23:27 | -34.12612 | -59.80785 | 24031 ft | 488 kts | 130° |
| 2026-04-28 23:27 | -34.14801 | -59.77712 | 23275 ft | 477 kts | 130° |
| 2026-04-28 23:27 | -34.16908 | -59.74752 | 22533 ft | 467 kts | 130° |
| 2026-04-28 23:28 | -34.18995 | -59.71816 | 21782 ft | 457 kts | 130° |
| 2026-04-28 23:28 | -34.21050 | -59.68924 | 21028 ft | 449 kts | 130° |
| 2026-04-28 23:28 | -34.23051 | -59.66108 | 20279 ft | 440 kts | 130° |
| 2026-04-28 23:28 | -34.25031 | -59.63321 | 19525 ft | 432 kts | 129° |
| 2026-04-28 23:29 | -34.26963 | -59.60601 | 18776 ft | 425 kts | 129° |
| 2026-04-28 23:29 | -34.28849 | -59.57948 | 18032 ft | 418 kts | 129° |
| 2026-04-28 23:29 | -34.30722 | -59.55316 | 17282 ft | 411 kts | 129° |
| 2026-04-28 23:29 | -34.32552 | -59.52742 | 16536 ft | 404 kts | 129° |
| 2026-04-28 23:30 | -34.34363 | -59.50191 | 15786 ft | 398 kts | 129° |
| 2026-04-28 23:30 | -34.36153 | -59.47667 | 15033 ft | 392 kts | 130° |
| 2026-04-28 23:30 | -34.37904 | -59.45196 | 14284 ft | 386 kts | 130° |
| 2026-04-28 23:30 | -34.39634 | -59.42754 | 13533 ft | 381 kts | 130° |
| 2026-04-28 23:31 | -34.41331 | -59.40354 | 12786 ft | 375 kts | 130° |
| 2026-04-28 23:31 | -34.43006 | -59.37985 | 12085 ft | 368 kts | 130° |
| 2026-04-28 23:31 | -34.44626 | -59.35697 | 11917 ft | 352 kts | 130° |
| 2026-04-28 23:31 | -34.46234 | -59.33419 | 11947 ft | 358 kts | 129° |
| 2026-04-28 23:32 | -34.47845 | -59.31131 | 11937 ft | 360 kts | 129° |
| 2026-04-28 23:32 | -34.49474 | -59.28819 | 11937 ft | 360 kts | 129° |
| 2026-04-28 23:32 | -34.51099 | -59.26510 | 11937 ft | 360 kts | 129° |
| 2026-04-28 23:32 | -34.52728 | -59.24194 | 11938 ft | 360 kts | 129° |
| 2026-04-28 23:33 | -34.54342 | -59.21896 | 11938 ft | 360 kts | 129° |
| 2026-04-28 23:33 | -34.55970 | -59.19575 | 11860 ft | 362 kts | 129° |
| 2026-04-28 23:33 | -34.57598 | -59.17253 | 11268 ft | 362 kts | 129° |
| 2026-04-28 23:33 | -34.59205 | -59.14964 | 10645 ft | 355 kts | 129° |
| 2026-04-28 23:34 | -34.60787 | -59.12708 | 10022 ft | 349 kts | 129° |
| 2026-04-28 23:34 | -34.62350 | -59.10478 | 9398 ft | 346 kts | 129° |
| 2026-04-28 23:34 | -34.63898 | -59.08267 | 8773 ft | 343 kts | 129° |
| 2026-04-28 23:34 | -34.65422 | -59.06089 | 8153 ft | 340 kts | 129° |
| 2026-04-28 23:35 | -34.66945 | -59.03912 | 7527 ft | 337 kts | 129° |
| 2026-04-28 23:35 | -34.68447 | -59.01763 | 6903 ft | 334 kts | 129° |
| 2026-04-28 23:35 | -34.69937 | -58.99631 | 6279 ft | 331 kts | 129° |
| 2026-04-28 23:35 | -34.71417 | -58.97509 | 5653 ft | 328 kts | 129° |
| 2026-04-28 23:36 | -34.72885 | -58.95406 | 5076 ft | 324 kts | 129° |
| 2026-04-28 23:36 | -34.74337 | -58.93326 | 4969 ft | 322 kts | 129° |
| 2026-04-28 23:36 | -34.75776 | -58.91259 | 4974 ft | 325 kts | 129° |
| 2026-04-28 23:36 | -34.77237 | -58.89158 | 4973 ft | 326 kts | 130° |
| 2026-04-28 23:37 | -34.78703 | -58.87051 | 4972 ft | 325 kts | 130° |
| 2026-04-28 23:37 | -34.80136 | -58.84989 | 4962 ft | 309 kts | 130° |
| 2026-04-28 23:37 | -34.81464 | -58.83083 | 4967 ft | 286 kts | 130° |
| 2026-04-28 23:37 | -34.82720 | -58.81280 | 4973 ft | 272 kts | 130° |
| 2026-04-28 23:38 | -34.83928 | -58.79545 | 4977 ft | 273 kts | 130° |
| 2026-04-28 23:38 | -34.85168 | -58.77760 | 4975 ft | 274 kts | 130° |
| 2026-04-28 23:38 | -34.86384 | -58.76008 | 4974 ft | 274 kts | 130° |
| 2026-04-28 23:38 | -34.87614 | -58.74235 | 4972 ft | 274 kts | 130° |
| 2026-04-28 23:39 | -34.88847 | -58.72455 | 4969 ft | 274 kts | 130° |
| 2026-04-28 23:39 | -34.90099 | -58.70687 | 4963 ft | 274 kts | 135° |
| 2026-04-28 23:39 | -34.91643 | -58.69332 | 4777 ft | 278 kts | 153° |
| 2026-04-28 23:39 | -34.93403 | -58.68341 | 4181 ft | 283 kts | 156° |
| 2026-04-28 23:40 | -34.95181 | -58.67362 | 3590 ft | 285 kts | 155° |
| 2026-04-28 23:40 | -34.96993 | -58.66364 | 3042 ft | 285 kts | 156° |
| 2026-04-28 23:40 | -34.98757 | -58.65397 | 2931 ft | 269 kts | 156° |
| 2026-04-28 23:40 | -35.00391 | -58.64500 | 2943 ft | 250 kts | 156° |
| 2026-04-28 23:41 | -35.01923 | -58.63661 | 2965 ft | 233 kts | 156° |
| 2026-04-28 23:41 | -35.03405 | -58.62849 | 2952 ft | 235 kts | 156° |
| 2026-04-28 23:41 | -35.04890 | -58.62034 | 2946 ft | 236 kts | 156° |
| 2026-04-28 23:41 | -35.06384 | -58.61214 | 2946 ft | 236 kts | 156° |
| 2026-04-28 23:42 | -35.07876 | -58.60395 | 2946 ft | 236 kts | 156° |
| 2026-04-28 23:42 | -35.09366 | -58.59576 | 2947 ft | 236 kts | 156° |
| 2026-04-28 23:42 | -35.10871 | -58.58750 | 2946 ft | 234 kts | 156° |
| 2026-04-28 23:42 | -35.12288 | -58.57973 | 2953 ft | 214 kts | 156° |
| 2026-04-28 23:43 | -35.13556 | -58.57281 | 2944 ft | 192 kts | 156° |
| 2026-04-28 23:43 | -35.14774 | -58.56618 | 2942 ft | 189 kts | 156° |
| 2026-04-28 23:43 | -35.15972 | -58.55965 | 2942 ft | 185 kts | 156° |
| 2026-04-28 23:43 | -35.17131 | -58.55335 | 2944 ft | 182 kts | 156° |
| 2026-04-28 23:44 | -35.18276 | -58.54712 | 2946 ft | 178 kts | 156° |
| 2026-04-28 23:44 | -35.19408 | -58.54096 | 2953 ft | 181 kts | 156° |
| 2026-04-28 23:44 | -35.20580 | -58.53458 | 2959 ft | 186 kts | 156° |
| 2026-04-28 23:44 | -35.21687 | -58.52639 | 2948 ft | 190 kts | 130° |
| 2026-04-28 23:45 | -35.22089 | -58.51143 | 2946 ft | 192 kts | 80° |
| 2026-04-28 23:45 | -35.21558 | -58.49639 | 2973 ft | 195 kts | 55° |
| 2026-04-28 23:45 | -35.20767 | -58.48278 | 2898 ft | 205 kts | 49° |
| 2026-04-28 23:45 | -35.19779 | -58.46962 | 2692 ft | 209 kts | 42° |
| 2026-04-28 23:46 | -35.18780 | -58.45780 | 2489 ft | 192 kts | 44° |
| 2026-04-28 23:46 | -35.17912 | -58.44624 | 2271 ft | 177 kts | 45° |
| 2026-04-28 23:46 | -35.17096 | -58.43579 | 2140 ft | 161 kts | 43° |
| 2026-04-28 23:46 | -35.16289 | -58.42785 | 2123 ft | 142 kts | 18° |
| 2026-04-28 23:47 | -35.15370 | -58.42717 | 2160 ft | 126 kts | 354° |
| 2026-04-28 23:47 | -35.14504 | -58.42770 | 2146 ft | 125 kts | 355° |
| 2026-04-28 23:47 | -35.13635 | -58.42848 | 2164 ft | 129 kts | 353° |
| 2026-04-28 23:47 | -35.12712 | -58.42966 | 2171 ft | 137 kts | 352° |
| 2026-04-28 23:48 | -35.11738 | -58.43131 | 2154 ft | 143 kts | 350° |
| 2026-04-28 23:48 | -35.10743 | -58.43338 | 2148 ft | 147 kts | 348° |
| 2026-04-28 23:48 | -35.09729 | -58.43539 | 2146 ft | 149 kts | 350° |
| 2026-04-28 23:48 | -35.08722 | -58.43780 | 2147 ft | 150 kts | 346° |
| 2026-04-28 23:49 | -35.07704 | -58.44083 | 2147 ft | 151 kts | 345° |
| 2026-04-28 23:49 | -35.06693 | -58.44413 | 2147 ft | 152 kts | 343° |
| 2026-04-28 23:49 | -35.05672 | -58.44760 | 2147 ft | 152 kts | 343° |
| 2026-04-28 23:49 | -35.04649 | -58.45113 | 2147 ft | 153 kts | 343° |
| 2026-04-28 23:50 | -35.03630 | -58.45467 | 2147 ft | 153 kts | 343° |
| 2026-04-28 23:50 | -35.02602 | -58.45826 | 2147 ft | 153 kts | 343° |
| 2026-04-28 23:50 | -35.01586 | -58.46180 | 2147 ft | 153 kts | 343° |
| 2026-04-28 23:50 | -35.00559 | -58.46538 | 2147 ft | 153 kts | 343° |
| 2026-04-28 23:51 | -34.99544 | -58.46892 | 2139 ft | 148 kts | 343° |
| 2026-04-28 23:51 | -34.98584 | -58.47226 | 2136 ft | 142 kts | 343° |
| 2026-04-28 23:51 | -34.97646 | -58.47553 | 2143 ft | 137 kts | 343° |
| 2026-04-28 23:51 | -34.96727 | -58.47873 | 2152 ft | 139 kts | 343° |
| 2026-04-28 23:52 | -34.95779 | -58.48204 | 2154 ft | 141 kts | 343° |
| 2026-04-28 23:52 | -34.94842 | -58.48531 | 2163 ft | 140 kts | 343° |
| 2026-04-28 23:52 | -34.93931 | -58.48848 | 2146 ft | 133 kts | 343° |
| 2026-04-28 23:52 | -34.93049 | -58.49155 | 2058 ft | 130 kts | 343° |
| 2026-04-28 23:53 | -34.92183 | -58.49456 | 1912 ft | 131 kts | 343° |
| 2026-04-28 23:53 | -34.91298 | -58.49765 | 1745 ft | 132 kts | 343° |
| 2026-04-28 23:53 | -34.90411 | -58.50073 | 1567 ft | 134 kts | 343° |
| 2026-04-28 23:53 | -34.89521 | -58.50397 | 1345 ft | 134 kts | 341° |
| 2026-04-28 23:54 | -34.88638 | -58.50708 | 1122 ft | 131 kts | 345° |
| 2026-04-28 23:54 | -34.87793 | -58.51019 | 977 ft | 121 kts | 343° |
| 2026-04-28 23:54 | -34.86998 | -58.51276 | 826 ft | 117 kts | 347° |
| 2026-04-28 23:54 | -34.86203 | -58.51537 | 693 ft | 120 kts | 345° |
| 2026-04-28 23:55 | -34.85393 | -58.51833 | 563 ft | 124 kts | 343° |
| 2026-04-28 23:55 | -34.84546 | -58.52113 | 401 ft | 127 kts | 344° |
| 2026-04-28 23:55 | -34.83714 | -58.52409 | 206 ft | 123 kts | 345° |
| 2026-04-28 23:55 | -34.82931 | -58.52668 | 73 ft | 101 kts | 344° |
| 2026-04-28 23:56 | -34.82441 | -58.52842 | 73 ft | 59 kts | 342° |
| 2026-04-28 23:56 | -34.82091 | -58.52968 | 73 ft | 28 kts | 335° |
| 2026-04-28 23:56 | -34.82021 | -58.53079 | 72 ft | 14 kts | 285° |
| 2026-04-28 23:56 | -34.81999 | -58.53209 | 72 ft | 19 kts | 284° |
| 2026-04-28 23:57 | -34.81958 | -58.53401 | 72 ft | 24 kts | 284° |
| 2026-04-28 23:57 | -34.81914 | -58.53577 | 72 ft | 21 kts | 300° |
| 2026-04-28 23:57 | -34.81805 | -58.53688 | 72 ft | 22 kts | 336° |
| 2026-04-28 23:57 | -34.81703 | -58.53776 | 72 ft | 13 kts | 313° |
| 2026-04-28 23:58 | -34.81645 | -58.53844 | 73 ft | 10 kts | 320° |
| 2026-04-28 23:58 | -34.81577 | -58.53913 | 72 ft | 7 kts | 321° |
| 2026-04-28 23:58 | -34.81564 | -58.53927 | 72 ft | 0 kts | 320° |